الصفحة الرئيسية
METAR-TAF:

METAR-TAF

مطار :

مطار الحسيمة الشريف الإدريسي

الحسيمة, المغرب

دائرة عرض: 35-11N, خط طول: 003-51W, ارتفاع: 27 متر

مراقبة الطقس الحالي

تاريخ ووقت الإصدار 43 دقيقة قبل الساعة 03:00UTC
ريح 2 عقدةمن اتجاهات متغيرة
درجة الحرارة 18°درجة مئوية
الرطوبة 83%
ضغط 1019 hPa
الرؤية 10 كم أو أكثر
غيوم متفرقة على ارتفاع 2300 قدم

METAR: GMTA 270300Z VRB02KT 9999 SCT023 18/15 Q1019 NOSIG

زمن: 04:43 (03:43 UTC)

توقعات

تاريخ ووقت الإصدار 4ساعات و 43 دقيقة قبل الساعة 23:00UTC
التوقعات صالحة من27 الساعة 00 UTC إلى 28 الساعة 06 UTC
ريح 2 عقدةمن اتجاهات متغيرة
الرؤية 10 كم أو أكثر
الغيوم لا تقل 1500 م ولا وجود لمزنة ركامية السحاب الأسود
أصبح
من 27 الساعة 10 UTC إلى 27 الساعة 12 UTC
ريح 12 عقدة من الشمال الشرقي

TAF: GMTA 262300Z 2700/2806 VRB02KT CAVOK BECMG 2710/2712 05012KT

أرصاد الطقس والتوقعات من أكثر من 4000 مطار (تقارير الطقس للمطار METAR والتنبؤ بالطقس بالمطارTAF).

المحطات المتاحة هي النقط الصفراء والحمراء على الخريطة.

حرك المؤشر فوق النقطة لمعرفة اسم المحطة.

ثم انقر لمعرفة أرصاد وتوقعات الطقس.

لتغيير الخارطة: اضغط على الأزرار الخضراء مع رمز الصليب الأسود للتكبير. على الزر الأخضر مع شرطة للتصغير، أو على الأسهم الخضراء للخرائط المجاورة.


METAR-TAF: